In Rescue
 
Open Full Screen Window  High Contrast Mode
Wind Gusting 00 knots
03
July 13, 2020 9:18 AM EDT
Weather Information
Wind Direction
  340 °
Wind Speed
  03 kt (3 mph)
Wind Gust
  00 kt (0 mph)
Altimeter
29.96 in
Visibility
10 SM
Temperature
23° C
73° F
Dewpoint
16° C
61° F
Humidity
65%
Sky Condition
Clear
VFR

METAR KCFS 131318Z AUTO 34003KT 10SM CLR 23/16 A2996 RMK AO2 T02260158

FAA Disclaimer: The data displayed is for advisory purposes only and is not to be used for flight planning or operations.